createdAt,value
2022-09-10T00:01:01.581Z,10.00
2022-09-10T00:03:29.877Z,9.00
2022-09-10T00:05:57.586Z,11.33
2022-09-10T00:08:26.087Z,9.00
2022-09-10T00:10:53.848Z,8.67
2022-09-10T00:13:22.721Z,11.00
2022-09-10T00:15:54.860Z,9.00
2022-09-10T00:18:23.098Z,9.67
2022-09-10T00:20:55.370Z,9.00
2022-09-10T00:23:25.386Z,7.00
2022-09-10T00:25:54.352Z,9.00
2022-09-10T00:28:23.263Z,9.00
2022-09-10T00:30:52.468Z,9.00
2022-09-10T00:33:22.053Z,9.00
2022-09-10T00:35:50.249Z,8.50
2022-09-10T00:38:18.741Z,11.00
2022-09-10T00:40:46.905Z,10.00
2022-09-10T00:43:20.665Z,9.00
2022-09-10T00:45:53.022Z,9.00
2022-09-10T00:48:23.208Z,8.67
2022-09-10T00:50:53.743Z,10.33
2022-09-10T00:53:26.685Z,9.00
2022-09-10T00:55:56.127Z,8.00
2022-09-10T00:58:26.759Z,8.00
2022-09-10T01:00:58.226Z,8.67
2022-09-10T01:03:26.372Z,8.00
2022-09-10T01:05:54.247Z,9.33
2022-09-10T01:08:22.119Z,8.00
2022-09-10T01:11:09.133Z,9.00
2022-09-10T01:13:52.564Z,7.00
2022-09-10T01:16:28.984Z,8.50
2022-09-10T01:18:59.764Z,7.00
2022-09-10T01:21:57.633Z,6.67
2022-09-10T01:24:33.181Z,8.00
2022-09-10T01:27:00.828Z,7.50
2022-09-10T01:29:34.016Z,9.00
2022-09-10T01:32:08.438Z,9.00
2022-09-10T01:34:42.089Z,7.67
2022-09-10T01:37:17.395Z,9.00
2022-09-10T01:39:47.481Z,8.67
2022-09-10T01:42:16.460Z,6.00
2022-09-10T01:44:51.371Z,9.00
2022-09-10T01:47:28.016Z,9.00
2022-09-10T01:50:19.437Z,8.00
2022-09-10T01:52:47.915Z,7.00
2022-09-10T01:55:18.856Z,7.00
2022-09-10T01:58:03.272Z,7.00
2022-09-10T02:00:41.818Z,7.00
2022-09-10T02:03:11.743Z,8.67
2022-09-10T02:05:42.125Z,6.00
2022-09-10T02:08:14.665Z,8.00
2022-09-10T02:10:54.068Z,7.00
2022-09-10T02:13:24.193Z,8.00
2022-09-10T02:16:23.847Z,7.00
2022-09-10T02:18:51.784Z,8.33
2022-09-10T02:21:20.366Z,7.67
2022-09-10T02:23:50.998Z,8.00
2022-09-10T02:26:18.967Z,6.67
2022-09-10T02:28:49.756Z,9.00
2022-09-10T02:31:18.850Z,8.33
2022-09-10T02:33:46.768Z,6.50
2022-09-10T02:36:14.531Z,7.50
2022-09-10T02:38:42.401Z,8.50
2022-09-10T02:41:10.470Z,6.33
2022-09-10T02:43:38.324Z,7.67
2022-09-10T02:46:07.535Z,10.00
2022-09-10T02:48:36.912Z,9.00
2022-09-10T02:51:04.907Z,8.67
2022-09-10T02:53:32.815Z,8.00
2022-09-10T02:56:03.761Z,7.33
2022-09-10T02:58:31.586Z,9.00
2022-09-10T03:01:07.264Z,9.00
2022-09-10T03:03:36.333Z,7.00
2022-09-10T03:06:04.581Z,9.00
2022-09-10T03:08:32.942Z,10.00
2022-09-10T03:11:01.232Z,8.50
2022-09-10T03:13:29.262Z,10.00
2022-09-10T03:16:07.535Z,9.00
2022-09-10T03:18:35.551Z,8.00
2022-09-10T03:21:09.933Z,8.00
2022-09-10T03:23:38.311Z,9.67
2022-09-10T03:26:06.816Z,10.00
2022-09-10T03:28:34.599Z,8.00
2022-09-10T03:31:02.977Z,9.67
2022-09-10T03:33:32.235Z,10.33
2022-09-10T03:36:00.610Z,8.00
2022-09-10T03:38:29.185Z,9.50
2022-09-10T03:40:58.814Z,9.00
2022-09-10T03:43:26.571Z,10.00
2022-09-10T03:45:55.612Z,10.50
2022-09-10T03:48:23.859Z,9.67
2022-09-10T03:50:52.425Z,10.00
2022-09-10T03:53:20.255Z,9.00
2022-09-10T03:55:49.590Z,8.50
2022-09-10T03:58:18.591Z,9.00
2022-09-10T04:00:46.751Z,9.00
2022-09-10T04:03:14.747Z,10.00
2022-09-10T04:05:45.669Z,10.00
2022-09-10T04:08:14.867Z,9.00
2022-09-10T04:10:44.268Z,7.50
2022-09-10T04:13:12.553Z,9.00
2022-09-10T04:15:40.715Z,10.00
2022-09-10T04:18:08.937Z,8.50
2022-09-10T04:20:38.101Z,9.00
2022-09-10T04:23:09.467Z,8.00
2022-09-10T04:25:39.044Z,8.50
2022-09-10T04:28:07.042Z,9.00
2022-09-10T04:30:35.217Z,7.67
2022-09-10T04:33:03.063Z,11.00
2022-09-10T04:35:33.892Z,9.00
2022-09-10T04:38:04.422Z,10.00
2022-09-10T04:40:32.130Z,8.00
2022-09-10T04:42:59.951Z,8.00
2022-09-10T04:45:27.829Z,8.50
2022-09-10T04:47:56.196Z,9.00
2022-09-10T04:50:24.189Z,9.00
2022-09-10T04:53:27.962Z,8.00
2022-09-10T04:55:57.513Z,10.00
2022-09-10T04:58:25.373Z,9.00
2022-09-10T05:00:53.247Z,8.33
2022-09-10T05:03:22.617Z,10.00
2022-09-10T05:05:51.303Z,9.00
2022-09-10T05:08:19.173Z,8.00
2022-09-10T05:10:53.505Z,9.00
2022-09-10T05:13:21.360Z,8.00
2022-09-10T05:15:49.430Z,9.00
2022-09-10T05:18:17.501Z,7.00
2022-09-10T05:20:45.795Z,8.00
2022-09-10T05:23:14.262Z,8.00
2022-09-10T05:25:43.569Z,8.67
2022-09-10T05:28:12.238Z,7.50
2022-09-10T05:30:40.319Z,9.00
2022-09-10T05:33:08.179Z,9.00
2022-09-10T05:35:36.148Z,9.00
2022-09-10T05:38:04.119Z,10.00
2022-09-10T05:40:36.388Z,10.00
2022-09-10T05:43:04.487Z,9.00
2022-09-10T05:45:34.003Z,9.00
2022-09-10T05:48:03.589Z,7.50
2022-09-10T05:50:31.338Z,8.00
2022-09-10T05:53:01.357Z,8.00
2022-09-10T05:55:31.490Z,9.33
2022-09-10T05:57:59.549Z,7.67
2022-09-10T06:00:27.414Z,8.50
2022-09-10T06:03:00.825Z,8.50
2022-09-10T06:05:39.988Z,8.00
2022-09-10T06:08:08.991Z,8.00
2022-09-10T06:10:41.564Z,7.33
2022-09-10T06:13:11.436Z,8.00
2022-09-10T06:15:42.272Z,11.00
2022-09-10T06:18:10.454Z,8.00
2022-09-10T06:20:38.233Z,11.00
2022-09-10T06:23:07.105Z,7.00
2022-09-10T06:25:35.370Z,9.00
2022-09-10T06:28:03.135Z,9.00
2022-09-10T06:30:31.370Z,9.00
2022-09-10T06:32:59.488Z,10.00
2022-09-10T06:35:27.657Z,11.00
2022-09-10T06:37:58.596Z,7.33
2022-09-10T06:40:27.903Z,9.00
2022-09-10T06:42:56.379Z,8.67
2022-09-10T06:45:42.430Z,8.00
2022-09-10T06:48:47.618Z,8.33
2022-09-10T06:51:17.338Z,6.50
2022-09-10T06:53:48.977Z,9.00
2022-09-10T06:56:21.043Z,9.00
2022-09-10T06:58:50.548Z,9.00
2022-09-10T07:01:20.065Z,8.00
2022-09-10T07:04:00.476Z,5.33
2022-09-10T07:06:33.802Z,6.50
2022-09-10T07:09:16.369Z,6.00
2022-09-10T07:11:53.738Z,6.33
2022-09-10T07:14:22.601Z,4.00
2022-09-10T07:16:55.591Z,7.00
2022-09-10T07:19:25.709Z,6.67
2022-09-10T07:21:53.533Z,4.33
2022-09-10T07:24:21.530Z,7.00
2022-09-10T07:27:11.325Z,5.67
2022-09-10T07:29:42.786Z,4.50
2022-09-10T07:32:16.587Z,6.67
2022-09-10T07:34:47.386Z,6.00
2022-09-10T07:37:18.518Z,7.00
2022-09-10T07:39:47.243Z,7.33
2022-09-10T07:42:16.227Z,8.50
2022-09-10T07:44:45.546Z,7.00
2022-09-10T07:47:13.788Z,7.00
2022-09-10T07:49:41.788Z,6.33
2022-09-10T07:52:09.833Z,7.00
2022-09-10T07:54:44.806Z,7.00
2022-09-10T07:57:13.171Z,7.33
2022-09-10T07:59:41.633Z,5.67
2022-09-10T08:02:12.928Z,10.00
2022-09-10T08:04:41.278Z,11.67
2022-09-10T08:07:11.520Z,10.33
2022-09-10T08:09:40.150Z,9.00
2022-09-10T08:12:10.106Z,9.00
2022-09-10T08:14:38.203Z,8.67
2022-09-10T08:17:07.167Z,8.00
2022-09-10T08:19:39.551Z,7.67
2022-09-10T08:22:11.459Z,9.33
2022-09-10T08:24:44.720Z,7.00
2022-09-10T08:27:13.154Z,9.00
2022-09-10T08:29:42.750Z,13.00
2022-09-10T08:32:14.440Z,10.00
2022-09-10T08:34:42.582Z,5.00
2022-09-10T08:37:12.629Z,11.33
2022-09-10T08:39:40.890Z,8.33
2022-09-10T08:42:15.996Z,9.33
2022-09-10T08:44:50.811Z,7.67
2022-09-10T08:47:22.059Z,5.50
2022-09-10T08:49:52.940Z,10.25
2022-09-10T08:52:21.648Z,7.67
2022-09-10T08:54:57.711Z,8.67
2022-09-10T08:57:28.333Z,6.00
2022-09-10T08:59:56.920Z,7.67
2022-09-10T09:02:48.464Z,9.00
2022-09-10T09:05:23.064Z,9.33
2022-09-10T09:07:53.390Z,9.33
2022-09-10T09:10:24.723Z,9.00
2022-09-10T09:13:04.996Z,10.67
2022-09-10T09:15:41.682Z,9.67
2022-09-10T09:18:11.172Z,10.00
2022-09-10T09:20:44.841Z,12.67
2022-09-10T09:23:19.597Z,11.00
2022-09-10T09:25:54.021Z,9.00
2022-09-10T09:28:26.082Z,10.00
2022-09-10T09:30:57.981Z,12.00
2022-09-10T09:33:30.225Z,10.67
2022-09-10T09:36:01.880Z,9.00
2022-09-10T09:38:37.976Z,8.33
2022-09-10T09:41:08.069Z,10.00
2022-09-10T09:43:49.953Z,10.00
2022-09-10T09:46:19.871Z,11.33
2022-09-10T09:48:49.065Z,13.00
2022-09-10T09:51:21.335Z,16.33
2022-09-10T09:54:18.024Z,12.33
2022-09-10T09:56:45.892Z,12.00
2022-09-10T09:59:34.924Z,12.00
2022-09-10T10:02:11.893Z,16.00
2022-09-10T10:04:42.444Z,10.67
2022-09-10T10:07:12.050Z,13.00
2022-09-10T10:09:43.163Z,13.00
2022-09-10T10:12:21.584Z,12.67
2022-09-10T10:14:49.961Z,11.00
2022-09-10T10:17:26.572Z,11.67
2022-09-10T10:19:59.046Z,12.00
2022-09-10T10:22:28.045Z,12.00
2022-09-10T10:24:56.073Z,10.33
2022-09-10T10:27:30.107Z,14.00
2022-09-10T10:30:21.995Z,12.00
2022-09-10T10:32:56.125Z,10.00
2022-09-10T10:35:44.376Z,11.67
2022-09-10T10:38:29.643Z,13.00
2022-09-10T10:41:05.489Z,10.00
2022-09-10T10:43:39.001Z,12.00
2022-09-10T10:46:17.351Z,10.00
2022-09-10T10:48:48.865Z,9.00
2022-09-10T10:51:27.173Z,9.33
2022-09-10T10:54:06.926Z,9.00
2022-09-10T10:56:40.810Z,7.00
2022-09-10T10:59:17.920Z,15.00
2022-09-10T11:01:52.626Z,9.00
2022-09-10T11:04:21.948Z,9.67
2022-09-10T11:06:55.037Z,7.00
2022-09-10T11:09:41.131Z,9.00
2022-09-10T11:12:12.173Z,10.33
2022-09-10T11:14:43.624Z,6.33
2022-09-10T11:17:11.699Z,7.67
2022-09-10T11:19:43.168Z,8.00
2022-09-10T11:22:14.903Z,7.00
2022-09-10T11:24:55.471Z,8.33
2022-09-10T11:27:36.236Z,8.33
2022-09-10T11:30:05.984Z,8.00
2022-09-10T11:32:54.704Z,8.50
2022-09-10T11:35:34.718Z,10.67
2022-09-10T11:38:20.754Z,11.00
2022-09-10T11:41:09.604Z,9.00
2022-09-10T11:43:55.702Z,9.00
2022-09-10T11:46:26.626Z,6.33
2022-09-10T11:49:07.854Z,9.00
2022-09-10T11:51:37.180Z,9.00
2022-09-10T11:54:16.250Z,8.67
2022-09-10T11:56:53.033Z,8.67
2022-09-10T11:59:39.286Z,5.00
2022-09-10T12:02:25.803Z,5.67
2022-09-10T12:05:12.376Z,7.00
2022-09-10T12:07:49.726Z,7.00
2022-09-10T12:10:33.052Z,5.33
2022-09-10T12:13:01.116Z,2.00
2022-09-10T12:15:35.749Z,2.00
2022-09-10T12:18:07.272Z,4.00
2022-09-10T12:20:37.939Z,3.00
2022-09-10T12:23:06.633Z,4.67
2022-09-10T12:25:35.021Z,4.00
2022-09-10T12:28:05.644Z,3.00
2022-09-10T12:30:33.733Z,4.00
2022-09-10T12:33:27.890Z,3.00
2022-09-10T12:35:55.959Z,4.00
2022-09-10T12:38:42.259Z,2.00
2022-09-10T12:41:11.047Z,2.00
2022-09-10T12:43:39.133Z,4.00
2022-09-10T12:46:07.577Z,1.00
2022-09-10T12:48:37.029Z,2.00
2022-09-10T12:51:12.756Z,2.50
2022-09-10T12:53:47.376Z,2.00
2022-09-10T12:56:34.190Z,3.00
2022-09-10T12:59:20.498Z,3.00
2022-09-10T13:01:49.362Z,2.00
2022-09-10T13:04:20.271Z,2.00
2022-09-10T13:06:48.698Z,0.00
2022-09-10T13:09:39.503Z,2.00
2022-09-10T13:12:18.330Z,1.00
2022-09-10T13:14:47.832Z,2.00
2022-09-10T13:17:34.733Z,3.00
2022-09-10T13:20:14.390Z,3.00
2022-09-10T13:23:17.452Z,3.00
2022-09-10T13:25:46.251Z,4.00
2022-09-10T13:28:29.094Z,2.00
2022-09-10T13:30:59.963Z,3.50
2022-09-10T13:33:30.936Z,3.00
2022-09-10T13:36:17.060Z,2.00
2022-09-10T13:38:47.900Z,0.00
2022-09-10T13:41:24.750Z,1.50
2022-09-10T13:44:04.828Z,2.00
2022-09-10T13:46:32.618Z,2.00
2022-09-10T13:49:06.394Z,4.00
2022-09-10T13:51:51.980Z,3.00
2022-09-10T13:54:23.850Z,4.00
2022-09-10T13:56:52.630Z,2.00
2022-09-10T13:59:24.083Z,2.00
2022-09-10T14:01:55.513Z,2.00
2022-09-10T14:04:32.511Z,0.00
2022-09-10T14:07:20.449Z,3.00
2022-09-10T14:09:50.486Z,1.00
2022-09-10T14:12:19.664Z,2.00
2022-09-10T14:14:51.151Z,5.00
2022-09-10T14:17:21.441Z,7.00
2022-09-10T14:20:01.596Z,4.50
2022-09-10T14:22:31.408Z,7.00
2022-09-10T14:25:00.842Z,4.50
2022-09-10T14:27:31.141Z,4.00
2022-09-10T14:30:18.467Z,2.00
2022-09-10T14:32:46.675Z,3.00
2022-09-10T14:35:32.786Z,3.00
2022-09-10T14:38:04.586Z,2.33
2022-09-10T14:40:38.600Z,1.50
2022-09-10T14:43:15.467Z,4.00
2022-09-10T14:45:46.312Z,2.00
2022-09-10T14:48:38.627Z,3.00
2022-09-10T14:51:13.028Z,1.00
2022-09-10T14:53:41.905Z,3.50
2022-09-10T14:56:15.466Z,2.00
2022-09-10T14:58:46.083Z,3.00
2022-09-10T15:01:14.905Z,3.00
2022-09-10T15:03:42.751Z,3.00
2022-09-10T15:06:11.539Z,3.00
2022-09-10T15:08:39.713Z,4.00
2022-09-10T15:11:15.670Z,5.00
2022-09-10T15:13:45.585Z,4.00
2022-09-10T15:16:13.481Z,4.00
2022-09-10T15:18:41.283Z,2.00
2022-09-10T15:21:12.258Z,3.00
2022-09-10T15:23:40.329Z,2.00
2022-09-10T15:26:11.576Z,3.00
2022-09-10T15:28:39.653Z,1.50
2022-09-10T15:31:07.791Z,2.00
2022-09-10T15:33:36.306Z,2.00
2022-09-10T15:36:04.563Z,3.50
2022-09-10T15:38:32.347Z,2.00
2022-09-10T15:41:13.213Z,1.00
2022-09-10T15:43:43.236Z,2.00
2022-09-10T15:46:12.363Z,2.00
2022-09-10T15:48:40.444Z,3.00
2022-09-10T15:51:13.941Z,2.00
2022-09-10T15:53:42.795Z,2.00
2022-09-10T15:56:11.372Z,2.00
2022-09-10T15:58:39.790Z,3.00
2022-09-10T16:01:11.481Z,2.50
2022-09-10T16:03:44.206Z,3.00
2022-09-10T16:06:11.961Z,3.50
2022-09-10T16:08:40.055Z,3.00
2022-09-10T16:11:09.125Z,3.00
2022-09-10T16:13:39.957Z,2.00
2022-09-10T16:16:10.486Z,2.50
2022-09-10T16:18:38.341Z,3.50
2022-09-10T16:21:11.472Z,2.00
2022-09-10T16:23:40.241Z,3.00
2022-09-10T16:26:09.736Z,2.00
2022-09-10T16:28:37.749Z,2.00
2022-09-10T16:31:19.211Z,2.00
2022-09-10T16:33:47.863Z,2.50
2022-09-10T16:36:17.428Z,1.00
2022-09-10T16:38:45.472Z,2.00
2022-09-10T16:41:14.552Z,2.00
2022-09-10T16:43:42.961Z,1.00
2022-09-10T16:46:11.949Z,2.00
2022-09-10T16:48:41.536Z,1.00
2022-09-10T16:51:14.178Z,3.00
2022-09-10T16:53:45.591Z,2.50
2022-09-10T16:56:14.863Z,2.00
2022-09-10T16:58:46.452Z,2.00
2022-09-10T17:01:15.084Z,2.00
2022-09-10T17:03:44.305Z,1.00
2022-09-10T17:06:15.853Z,1.00
2022-09-10T17:08:45.263Z,2.00
2022-09-10T17:11:14.364Z,3.00
2022-09-10T17:13:42.674Z,2.00
2022-09-10T17:16:14.554Z,2.00
2022-09-10T17:18:43.501Z,3.00
2022-09-10T17:21:11.764Z,3.00
2022-09-10T17:23:40.416Z,3.00
2022-09-10T17:26:09.032Z,1.50
2022-09-10T17:28:37.560Z,3.00
2022-09-10T17:31:05.922Z,1.00
2022-09-10T17:33:33.800Z,5.00
2022-09-10T17:36:02.855Z,4.00
2022-09-10T17:38:33.716Z,4.00
2022-09-10T17:41:03.001Z,3.00
2022-09-10T17:43:34.902Z,4.00
2022-09-10T17:46:06.151Z,4.00
2022-09-10T17:48:35.868Z,4.50
2022-09-10T17:51:05.737Z,5.00
2022-09-10T17:53:34.714Z,4.50
2022-09-10T17:56:04.118Z,3.33
2022-09-10T17:58:36.711Z,6.00
2022-09-10T18:01:08.147Z,3.00
2022-09-10T18:03:36.516Z,5.00
2022-09-10T18:06:11.228Z,5.00
2022-09-10T18:08:39.738Z,4.00
2022-09-10T18:11:13.112Z,5.00
2022-09-10T18:13:41.370Z,4.50
2022-09-10T18:16:10.562Z,4.00
2022-09-10T18:18:39.771Z,5.00
2022-09-10T18:21:19.959Z,3.00
2022-09-10T18:23:55.199Z,4.50
2022-09-10T18:26:25.152Z,3.00
2022-09-10T18:28:58.736Z,5.00
2022-09-10T18:31:28.463Z,4.00
2022-09-10T18:33:58.243Z,3.00
2022-09-10T18:36:28.726Z,4.00
2022-09-10T18:38:56.535Z,3.00
2022-09-10T18:41:25.941Z,4.00
2022-09-10T18:43:58.549Z,4.00
2022-09-10T18:46:29.330Z,4.00
2022-09-10T18:48:58.202Z,2.00
2022-09-10T18:51:28.068Z,3.00
2022-09-10T18:53:58.907Z,3.00
2022-09-10T18:56:31.470Z,2.00
2022-09-10T18:59:01.365Z,3.00
2022-09-10T19:01:31.340Z,3.50
2022-09-10T19:03:59.367Z,3.00
2022-09-10T19:06:29.982Z,2.00
2022-09-10T19:09:04.839Z,5.00
2022-09-10T19:11:34.375Z,4.00
2022-09-10T19:14:04.979Z,4.00
2022-09-10T19:16:37.883Z,4.00
2022-09-10T19:19:06.866Z,2.00
2022-09-10T19:21:38.853Z,2.00
2022-09-10T19:24:06.823Z,3.00
2022-09-10T19:26:38.737Z,3.00
2022-09-10T19:29:06.919Z,3.00
2022-09-10T19:31:35.092Z,2.00
2022-09-10T19:34:05.560Z,2.00
2022-09-10T19:36:35.437Z,2.00
2022-09-10T19:39:05.296Z,2.00
2022-09-10T19:41:35.342Z,4.00
2022-09-10T19:44:03.877Z,2.50
2022-09-10T19:46:33.440Z,2.00
2022-09-10T19:49:01.813Z,2.00
2022-09-10T19:51:31.550Z,3.00
2022-09-10T19:54:00.642Z,1.00
2022-09-10T19:56:31.658Z,1.00
2022-09-10T19:59:00.405Z,4.00
2022-09-10T20:01:33.165Z,3.00
2022-09-10T20:04:01.785Z,2.00
2022-09-10T20:06:30.145Z,2.00
2022-09-10T20:08:58.919Z,1.00
2022-09-10T20:11:30.526Z,1.00
2022-09-10T20:14:02.722Z,0.50
2022-09-10T20:16:31.831Z,2.00
2022-09-10T20:19:02.387Z,0.00
2022-09-10T20:21:31.354Z,1.00
2022-09-10T20:23:59.079Z,1.00
2022-09-10T20:26:30.720Z,1.00
2022-09-10T20:29:00.782Z,1.00
2022-09-10T20:31:30.062Z,1.00
2022-09-10T20:34:03.656Z,1.00
2022-09-10T20:36:32.696Z,1.00
2022-09-10T20:39:00.797Z,1.00
2022-09-10T20:41:30.729Z,2.00
2022-09-10T20:44:05.584Z,2.00
2022-09-10T20:46:41.765Z,2.00
2022-09-10T20:49:11.570Z,2.00
2022-09-10T20:51:41.219Z,1.50
2022-09-10T20:54:18.862Z,2.00
2022-09-10T20:56:46.862Z,1.00
2022-09-10T20:59:16.684Z,1.00
2022-09-10T21:01:47.640Z,1.00
2022-09-10T21:04:19.827Z,2.00
2022-09-10T21:06:49.478Z,1.00
2022-09-10T21:09:18.077Z,1.00
2022-09-10T21:11:46.651Z,1.00
2022-09-10T21:14:14.364Z,1.00
2022-09-10T21:16:43.400Z,0.00
2022-09-10T21:19:13.425Z,1.00
2022-09-10T21:21:43.288Z,1.00
2022-09-10T21:24:13.662Z,1.00
2022-09-10T21:26:43.495Z,1.00
2022-09-10T21:29:14.519Z,0.00
2022-09-10T21:31:43.531Z,1.00
2022-09-10T21:34:12.785Z,1.00
2022-09-10T21:36:41.359Z,0.00
2022-09-10T21:39:16.612Z,1.00
2022-09-10T21:41:48.588Z,1.00
2022-09-10T21:44:21.228Z,1.00
2022-09-10T21:46:49.963Z,0.50
2022-09-10T21:49:18.573Z,1.00
2022-09-10T21:51:46.920Z,1.00
2022-09-10T21:54:17.117Z,1.00
2022-09-10T21:56:45.213Z,1.00
2022-09-10T21:59:14.566Z,1.00
2022-09-10T22:01:45.450Z,0.00
2022-09-10T22:04:16.825Z,1.00
2022-09-10T22:06:47.330Z,1.50
2022-09-10T22:09:16.023Z,2.00
2022-09-10T22:11:47.068Z,1.00
2022-09-10T22:14:16.244Z,1.00
2022-09-10T22:16:45.549Z,1.00
2022-09-10T22:19:15.741Z,1.00
2022-09-10T22:21:45.077Z,1.00
2022-09-10T22:24:14.894Z,1.00
2022-09-10T22:26:45.176Z,1.00
2022-09-10T22:29:15.334Z,1.00
2022-09-10T22:31:44.337Z,1.00
2022-09-10T22:34:14.708Z,1.00
2022-09-10T22:36:44.673Z,1.00
2022-09-10T22:39:14.902Z,1.00
2022-09-10T22:41:44.650Z,0.00
2022-09-10T22:44:12.888Z,1.00
2022-09-10T22:46:43.155Z,2.00
2022-09-10T22:49:11.277Z,1.00
2022-09-10T22:51:43.852Z,1.00
2022-09-10T22:54:13.310Z,1.00
2022-09-10T22:56:42.187Z,1.00
2022-09-10T22:59:14.779Z,1.00
2022-09-10T23:01:47.676Z,1.00
2022-09-10T23:04:17.232Z,1.00
2022-09-10T23:06:48.262Z,1.00
2022-09-10T23:09:17.547Z,1.00
2022-09-10T23:11:47.703Z,1.00
2022-09-10T23:14:22.038Z,1.00
2022-09-10T23:16:51.970Z,1.00
2022-09-10T23:19:22.165Z,1.00
2022-09-10T23:21:54.259Z,1.00
2022-09-10T23:24:24.512Z,1.00
2022-09-10T23:26:53.630Z,1.00
2022-09-10T23:29:23.439Z,1.00
2022-09-10T23:31:55.295Z,1.00
2022-09-10T23:34:23.263Z,1.00
2022-09-10T23:36:51.846Z,1.00
2022-09-10T23:39:21.245Z,1.00
2022-09-10T23:41:49.590Z,1.00
2022-09-10T23:44:18.110Z,1.00
2022-09-10T23:46:46.649Z,0.00
2022-09-10T23:49:16.041Z,1.00
2022-09-10T23:51:44.070Z,1.00
2022-09-10T23:54:12.626Z,1.00
2022-09-10T23:56:40.834Z,1.00
2022-09-10T23:59:10.291Z,1.00
